Time;durP1;ratioP1;P1;durP2;ratioP2;P2;SDS_P1;SDS_P2;PMS_P1;PMS_P2;Temp;Humidity;BMP_temperature;BMP_pressure;BME280_temperature;BME280_humidity;BME280_pressure;Samples;Min_cycle;Max_cycle;Signal;HPM_P1;HPM_P2
2021/12/22 00:02:03;;;;;;;15.40;9.85;;;-0.10;99.90;;;;;;5134199;27;20046;-61
2021/12/22 00:04:31;;;;;;;15.52;9.48;;;-0.10;99.90;;;;;;5134521;27;20502;-60
2021/12/22 00:06:57;;;;;;;17.02;9.98;;;0.00;99.90;;;;;;5116105;27;20080;-60
2021/12/22 00:09:23;;;;;;;17.75;9.50;;;-0.10;99.90;;;;;;5113827;27;20560;-61
2021/12/22 00:11:49;;;;;;;14.15;8.27;;;-0.10;99.90;;;;;;5134505;27;20055;-61
2021/12/22 00:14:16;;;;;;;17.08;9.98;;;-0.10;99.90;;;;;;5095748;28;20481;-61
2021/12/22 00:16:42;;;;;;;14.50;9.63;;;-0.10;99.90;;;;;;5113143;28;20571;-61
2021/12/22 00:19:07;;;;;;;17.98;10.45;;;-0.20;99.90;;;;;;5088510;27;20212;-60
2021/12/22 00:21:34;;;;;;;16.27;9.10;;;-0.20;99.90;;;;;;5133972;27;20122;-61
2021/12/22 00:24:00;;;;;;;13.07;7.68;;;-0.20;99.90;;;;;;5134324;27;20130;-60
2021/12/22 00:26:26;;;;;;;16.58;9.10;;;-0.20;99.90;;;;;;5134451;27;20134;-60
2021/12/22 00:28:52;;;;;;;13.68;8.40;;;-0.20;99.90;;;;;;5114693;27;20042;-58
2021/12/22 00:31:20;;;;;;;15.05;8.98;;;-0.20;99.90;;;;;;5116727;27;20209;-58
2021/12/22 00:33:51;;;;;;;17.67;9.82;;;-0.20;99.90;;;;;;5115343;27;20094;-61
2021/12/22 00:36:23;;;;;;;15.63;9.30;;;-0.20;99.90;;;;;;5114248;27;20062;-60
2021/12/22 00:38:51;;;;;;;13.43;8.95;;;-0.20;99.90;;;;;;5097787;27;20131;-61
2021/12/22 00:41:17;;;;;;;13.48;7.90;;;-0.20;99.90;;;;;;5132927;27;20453;-60
2021/12/22 00:43:43;;;;;;;14.93;8.52;;;-0.20;99.90;;;;;;5114978;27;20054;-60
2021/12/22 00:46:12;;;;;;;14.95;8.90;;;-0.30;99.90;;;;;;5133290;27;20043;-60
2021/12/22 00:48:38;;;;;;;14.80;9.07;;;-0.30;99.90;;;;;;5115542;27;20043;-60
2021/12/22 00:51:04;;;;;;;15.75;8.73;;;-0.30;99.90;;;;;;5132254;27;20055;-60
2021/12/22 00:53:29;;;;;;;13.45;8.65;;;-0.30;99.90;;;;;;5133505;27;20065;-60
2021/12/22 00:55:55;;;;;;;14.60;8.32;;;-0.30;99.90;;;;;;5132816;27;20046;-61
2021/12/22 00:58:21;;;;;;;15.40;8.88;;;-0.30;99.90;;;;;;5115321;27;20046;-60
2021/12/22 01:00:49;;;;;;;16.70;8.93;;;-0.40;99.90;;;;;;5128603;27;20464;-61
2021/12/22 01:03:15;;;;;;;15.98;9.27;;;-0.40;99.90;;;;;;5123752;27;20074;-60
2021/12/22 01:05:41;;;;;;;19.05;9.20;;;-0.40;99.90;;;;;;5133445;27;20091;-60
2021/12/22 01:08:07;;;;;;;15.00;8.77;;;-0.40;99.90;;;;;;5132905;27;20430;-61
2021/12/22 01:10:33;;;;;;;16.05;8.77;;;-0.40;99.90;;;;;;5133076;27;20043;-60
2021/12/22 01:13:02;;;;;;;13.65;9.10;;;-0.40;99.90;;;;;;5130896;27;20471;-61
2021/12/22 01:15:29;;;;;;;15.27;8.55;;;-0.20;99.90;;;;;;5133464;27;20182;-60
2021/12/22 01:18:03;;;;;;;16.30;8.90;;;-0.50;99.90;;;;;;5114192;27;20445;-60
2021/12/22 01:20:35;;;;;;;18.92;8.65;;;-0.50;99.90;;;;;;5133206;27;20035;-60
2021/12/22 01:23:03;;;;;;;17.40;8.73;;;-0.50;99.90;;;;;;5117919;27;20119;-60
2021/12/22 01:25:43;;;;;;;13.93;8.82;;;-0.50;99.90;;;;;;5114706;27;20122;-61
2021/12/22 01:28:10;;;;;;;15.25;9.18;;;-0.50;99.90;;;;;;5132595;27;20123;-60
2021/12/22 01:30:41;;;;;;;19.38;8.25;;;-0.50;99.90;;;;;;5132919;27;20047;-60
2021/12/22 01:33:07;;;;;;;13.02;7.80;;;-0.50;99.90;;;;;;5121708;27;20126;-61
2021/12/22 01:35:34;;;;;;;14.90;8.85;;;-0.50;99.90;;;;;;5132145;27;20551;-58
2021/12/22 01:38:00;;;;;;;16.70;8.55;;;-0.50;99.90;;;;;;5132378;27;20090;-58
2021/12/22 01:40:26;;;;;;;15.63;8.80;;;-0.50;99.90;;;;;;5114544;27;20092;-63
2021/12/22 01:42:57;;;;;;;15.60;8.68;;;-0.50;99.90;;;;;;5113694;27;20118;-60
2021/12/22 01:45:47;;;;;;;14.45;8.18;;;-0.30;99.90;;;;;;5132884;27;20116;-60
2021/12/22 01:51:05;;;;;;;21.85;9.00;;;-0.60;99.90;;;;;;5132530;27;20073;-61
2021/12/22 01:53:35;;;;;;;15.52;8.35;;;-0.60;99.90;;;;;;5114128;27;20143;-60
2021/12/22 01:56:33;;;;;;;15.52;8.88;;;-0.60;99.90;;;;;;5132128;27;20403;-60
2021/12/22 01:58:59;;;;;;;15.40;9.38;;;-0.70;99.90;;;;;;5113668;27;20055;-63
2021/12/22 02:01:26;;;;;;;16.17;8.77;;;-0.70;99.90;;;;;;5132562;27;20035;-60
2021/12/22 02:03:53;;;;;;;15.05;8.68;;;-0.70;99.90;;;;;;5125507;27;20046;-60
2021/12/22 02:06:19;;;;;;;17.70;8.30;;;-0.70;99.90;;;;;;5126413;27;20075;-61
2021/12/22 02:08:46;;;;;;;11.77;8.05;;;-0.80;99.90;;;;;;5132778;27;20050;-61
2021/12/22 02:11:14;;;;;;;15.88;8.65;;;-0.80;99.90;;;;;;5132020;27;20114;-61
2021/12/22 02:13:44;;;;;;;12.70;8.55;;;-0.70;99.90;;;;;;5113693;27;20051;-60
2021/12/22 02:16:14;;;;;;;13.65;8.30;;;-0.80;99.90;;;;;;5131502;27;20043;-60
2021/12/22 02:18:48;;;;;;;14.48;7.97;;;-0.80;99.90;;;;;;5132729;27;20076;-61
2021/12/22 02:21:16;;;;;;;15.07;9.00;;;-0.80;99.90;;;;;;5131657;27;20434;-60
2021/12/22 02:23:42;;;;;;;15.88;8.98;;;-0.80;99.90;;;;;;5114131;27;20281;-60
2021/12/22 02:26:16;;;;;;;13.20;8.75;;;-0.80;99.90;;;;;;5120075;27;20062;-60
2021/12/22 02:28:46;;;;;;;16.38;9.13;;;-0.80;99.90;;;;;;5114492;27;20442;-60
2021/12/22 02:31:17;;;;;;;17.27;9.70;;;-0.80;99.90;;;;;;5113825;27;20050;-61
2021/12/22 02:33:46;;;;;;;14.05;8.90;;;-0.80;99.90;;;;;;5113861;27;20366;-60
2021/12/22 02:36:26;;;;;;;16.85;9.20;;;-0.80;99.90;;;;;;5103626;28;20051;-61
2021/12/22 02:38:59;;;;;;;15.05;9.18;;;-0.80;99.90;;;;;;5132695;27;20066;-60
2021/12/22 02:41:29;;;;;;;16.27;8.77;;;-0.90;99.90;;;;;;5131628;27;20082;-60
2021/12/22 02:43:57;;;;;;;15.10;8.30;;;-0.90;99.90;;;;;;5131916;27;20051;-60
2021/12/22 02:46:33;;;;;;;18.95;10.30;;;-0.90;99.90;;;;;;5129381;27;20050;-61
2021/12/22 02:49:01;;;;;;;17.02;9.10;;;-0.90;99.90;;;;;;5132230;27;20051;-62
2021/12/22 02:51:28;;;;;;;16.85;9.60;;;-0.80;99.90;;;;;;5096332;28;20051;-58
2021/12/22 02:54:06;;;;;;;16.58;8.52;;;-0.90;99.90;;;;;;5131687;27;20051;-59
2021/12/22 02:56:40;;;;;;;17.17;9.63;;;-0.90;99.90;;;;;;5124960;28;20477;-58
2021/12/22 03:02:08;;;;;;;15.80;8.88;;;-0.90;99.90;;;;;;5130947;28;20094;-59
2021/12/22 03:04:44;;;;;;;16.98;9.80;;;-0.90;99.90;;;;;;5113852;28;20082;-59
2021/12/22 03:07:16;;;;;;;13.38;8.93;;;-0.90;99.90;;;;;;5124755;28;20048;-59
2021/12/22 03:09:43;;;;;;;16.23;9.85;;;-1.00;99.90;;;;;;5130862;28;20460;-59
2021/12/22 03:12:12;;;;;;;14.30;8.43;;;-0.90;99.90;;;;;;5112607;28;20087;-59
2021/12/22 03:14:38;;;;;;;16.50;8.75;;;-0.90;99.90;;;;;;5130758;28;20047;-59
2021/12/22 03:17:03;;;;;;;16.90;8.75;;;-1.00;99.90;;;;;;5094527;28;20413;-59
2021/12/22 03:19:34;;;;;;;14.85;9.20;;;-1.00;99.90;;;;;;5110322;28;20051;-59
2021/12/22 03:22:03;;;;;;;14.88;9.13;;;-1.00;99.90;;;;;;5130988;28;20101;-59
2021/12/22 03:24:31;;;;;;;16.85;9.73;;;-1.00;99.90;;;;;;5130230;28;20531;-59
2021/12/22 03:27:01;;;;;;;19.38;9.38;;;-0.90;99.90;;;;;;5131052;28;20051;-59
2021/12/22 03:29:27;;;;;;;17.23;10.32;;;-1.00;99.90;;;;;;5109915;28;20055;-59
2021/12/22 03:31:53;;;;;;;18.05;9.35;;;-1.00;99.90;;;;;;5110470;28;20052;-59
2021/12/22 03:34:19;;;;;;;16.60;10.10;;;-1.00;99.90;;;;;;5093191;28;20043;-59
2021/12/22 03:36:45;;;;;;;16.08;9.07;;;-0.70;99.90;;;;;;5130704;28;20116;-58
2021/12/22 03:39:13;;;;;;;14.55;8.90;;;-1.00;99.90;;;;;;5120430;28;20048;-61
2021/12/22 03:41:39;;;;;;;16.48;8.52;;;-1.10;99.90;;;;;;5076119;28;20366;-58
2021/12/22 03:44:07;;;;;;;16.08;8.45;;;-1.10;99.90;;;;;;5110944;28;20401;-58
2021/12/22 03:46:33;;;;;;;18.10;8.63;;;-1.10;99.90;;;;;;5127036;28;20122;-59
2021/12/22 03:48:59;;;;;;;14.77;9.10;;;-1.10;99.90;;;;;;5129620;28;20047;-61
2021/12/22 03:51:26;;;;;;;16.73;9.32;;;-1.10;99.90;;;;;;5131112;28;20043;-59
2021/12/22 03:53:52;;;;;;;17.63;8.65;;;-1.10;99.90;;;;;;5096309;28;20047;-59
2021/12/22 03:56:18;;;;;;;13.23;7.38;;;-1.10;99.90;;;;;;5130589;28;20593;-59
2021/12/22 03:58:44;;;;;;;17.60;8.13;;;-1.10;99.90;;;;;;5131047;28;20090;-60
2021/12/22 04:01:10;;;;;;;17.00;8.02;;;-1.10;99.90;;;;;;5129477;28;20456;-59
2021/12/22 04:03:37;;;;;;;14.18;8.07;;;-1.10;99.90;;;;;;5130970;28;20053;-59
2021/12/22 04:06:04;;;;;;;14.85;9.38;;;-1.20;99.90;;;;;;5130978;28;20083;-59
2021/12/22 04:08:30;;;;;;;22.67;10.52;;;-1.20;99.90;;;;;;5111815;28;20043;-58
2021/12/22 04:10:56;;;;;;;19.25;10.35;;;-1.20;99.90;;;;;;5131046;27;20039;-59
2021/12/22 04:13:21;;;;;;;15.43;9.73;;;-1.30;99.90;;;;;;5134542;27;20043;-60
2021/12/22 04:15:47;;;;;;;14.48;9.57;;;-1.30;99.90;;;;;;5134430;27;20078;-60
2021/12/22 04:18:14;;;;;;;16.50;9.15;;;-1.30;99.90;;;;;;5116244;27;20508;-60
2021/12/22 04:20:40;;;;;;;17.45;9.95;;;-1.40;99.90;;;;;;5131757;27;20035;-60
2021/12/22 04:23:06;;;;;;;25.65;11.43;;;-1.40;99.90;;;;;;5134685;27;20062;-60
2021/12/22 04:25:33;;;;;;;18.95;10.98;;;-1.40;99.90;;;;;;5098652;27;20127;-60
2021/12/22 04:28:04;;;;;;;17.35;10.57;;;-1.50;99.90;;;;;;5116254;27;20059;-60
2021/12/22 04:30:32;;;;;;;17.30;10.68;;;-1.50;99.90;;;;;;5131936;27;20143;-60
2021/12/22 04:32:59;;;;;;;21.90;11.48;;;-1.20;99.90;;;;;;5095978;28;20132;-60
2021/12/22 04:35:25;;;;;;;22.85;11.15;;;-1.50;99.90;;;;;;5124334;27;20183;-59
2021/12/22 04:37:51;;;;;;;15.88;9.63;;;-1.50;99.90;;;;;;5134349;27;20047;-59
2021/12/22 04:40:16;;;;;;;18.70;10.50;;;-1.60;99.90;;;;;;5110739;28;20400;-60
2021/12/22 04:42:43;;;;;;;22.50;12.20;;;-1.60;99.90;;;;;;5127993;27;20096;-59
2021/12/22 04:45:10;;;;;;;16.58;11.10;;;-1.60;99.90;;;;;;5138554;27;20046;-59
2021/12/22 04:47:37;;;;;;;18.30;12.43;;;-1.70;99.90;;;;;;5133990;27;20091;-59
2021/12/22 04:50:14;;;;;;;21.85;10.90;;;-1.70;99.90;;;;;;5115871;27;20043;-62
2021/12/22 04:52:51;;;;;;;19.90;11.70;;;-1.70;99.90;;;;;;5115016;27;20043;-60
2021/12/22 04:55:16;;;;;;;18.90;11.00;;;-1.80;99.90;;;;;;5133786;27;20051;-60
2021/12/22 04:57:43;;;;;;;18.85;12.05;;;-1.80;99.90;;;;;;5133237;27;20055;-60
2021/12/22 05:00:11;;;;;;;16.98;10.68;;;-1.80;99.90;;;;;;5134091;27;20076;-60
2021/12/22 05:02:37;;;;;;;17.90;10.30;;;-1.90;99.90;;;;;;5104504;27;20454;-59
2021/12/22 05:05:03;;;;;;;17.15;10.60;;;-1.90;99.90;;;;;;5133711;27;20104;-58
2021/12/22 05:07:29;;;;;;;17.33;11.77;;;-1.90;99.90;;;;;;5133222;27;20070;-59
2021/12/22 05:09:55;;;;;;;15.90;10.32;;;-1.90;99.90;;;;;;5133809;27;20461;-59
2021/12/22 05:12:21;;;;;;;19.65;11.30;;;-1.70;99.90;;;;;;5125395;27;20057;-59
2021/12/22 05:14:49;;;;;;;16.15;10.70;;;-2.00;99.90;;;;;;5132969;27;20117;-58
2021/12/22 05:17:22;;;;;;;19.13;10.98;;;-1.80;99.90;;;;;;5115008;27;20074;-59
2021/12/22 05:19:48;;;;;;;17.02;10.18;;;-2.00;99.90;;;;;;5133188;27;20051;-59
2021/12/22 05:22:15;;;;;;;19.70;10.20;;;-1.90;99.90;;;;;;5130127;27;20079;-59
2021/12/22 05:24:40;;;;;;;23.27;11.82;;;-2.10;99.90;;;;;;5132895;27;20555;-59
2021/12/22 05:27:11;;;;;;;19.17;10.70;;;-2.10;99.90;;;;;;5133153;27;20122;-59
2021/12/22 05:29:38;;;;;;;17.80;11.25;;;-2.10;99.90;;;;;;5133164;27;20121;-59
2021/12/22 05:32:05;;;;;;;19.90;11.05;;;-2.10;99.90;;;;;;5133283;27;20126;-59
2021/12/22 05:34:32;;;;;;;18.92;11.57;;;-2.10;99.90;;;;;;5127901;27;20086;-59
2021/12/22 05:36:57;;;;;;;20.50;11.40;;;-2.10;99.90;;;;;;5132608;27;20483;-59
2021/12/22 05:39:23;;;;;;;20.30;12.30;;;-2.10;99.90;;;;;;5133280;27;20090;-59
2021/12/22 05:41:49;;;;;;;18.00;12.20;;;-2.10;99.90;;;;;;5114446;27;20567;-60
2021/12/22 05:44:14;;;;;;;18.50;11.63;;;-2.00;99.90;;;;;;5130677;27;20043;-60
2021/12/22 05:46:40;;;;;;;15.18;10.60;;;-2.10;99.90;;;;;;5113605;27;20552;-60
2021/12/22 05:49:06;;;;;;;18.27;12.05;;;-2.10;99.90;;;;;;5113692;27;20515;-60
2021/12/22 05:51:34;;;;;;;19.65;12.75;;;-2.10;99.90;;;;;;5132472;27;20047;-62
2021/12/22 05:54:00;;;;;;;18.92;12.55;;;-2.10;99.90;;;;;;5129892;27;20088;-60
2021/12/22 05:56:27;;;;;;;19.52;11.85;;;-2.20;99.90;;;;;;5132833;27;20346;-60
2021/12/22 05:58:53;;;;;;;18.08;11.85;;;-2.20;99.90;;;;;;5131945;27;20051;-60
2021/12/22 06:01:19;;;;;;;20.52;12.13;;;-2.10;99.90;;;;;;5132911;27;20058;-60
2021/12/22 06:03:45;;;;;;;21.27;13.32;;;-2.20;99.90;;;;;;5132360;27;20043;-60
2021/12/22 06:06:11;;;;;;;17.63;12.00;;;-2.20;99.90;;;;;;5130370;27;20450;-60
2021/12/22 06:08:37;;;;;;;23.90;12.82;;;-2.20;99.90;;;;;;5113482;27;20043;-59
2021/12/22 06:11:02;;;;;;;21.80;13.40;;;-2.20;99.90;;;;;;5114367;27;20476;-60
2021/12/22 06:13:28;;;;;;;20.33;13.38;;;-2.20;99.90;;;;;;5132529;27;20554;-60
2021/12/22 06:15:54;;;;;;;22.23;13.32;;;-2.20;99.90;;;;;;5112302;27;20043;-60
2021/12/22 06:18:20;;;;;;;22.00;13.18;;;-2.10;99.90;;;;;;5132260;27;20084;-62
2021/12/22 06:20:46;;;;;;;21.08;13.85;;;-2.10;99.90;;;;;;5131916;27;20047;-60
2021/12/22 06:23:12;;;;;;;21.83;13.90;;;-2.10;99.90;;;;;;5129953;27;20126;-60
2021/12/22 06:25:37;;;;;;;19.80;13.48;;;-2.20;99.90;;;;;;5112877;27;20051;-61
2021/12/22 06:28:04;;;;;;;21.05;12.15;;;-2.20;99.90;;;;;;5132219;27;20047;-61
2021/12/22 06:30:30;;;;;;;22.45;14.07;;;-2.20;99.90;;;;;;5132035;27;20118;-61
2021/12/22 06:32:56;;;;;;;18.77;12.52;;;-2.20;99.90;;;;;;5113349;27;21069;-60
2021/12/22 06:35:22;;;;;;;24.00;13.45;;;-2.20;99.90;;;;;;5128286;27;20126;-60
2021/12/22 06:37:50;;;;;;;22.23;13.32;;;-2.20;99.90;;;;;;5110899;27;20078;-60
2021/12/22 06:40:16;;;;;;;19.13;12.57;;;-2.20;99.90;;;;;;5107121;27;20066;-61
2021/12/22 06:42:42;;;;;;;17.77;11.65;;;-2.20;99.90;;;;;;5130443;27;20039;-59
2021/12/22 06:45:10;;;;;;;20.50;13.30;;;-2.10;99.90;;;;;;5140205;27;20046;-59
2021/12/22 06:47:36;;;;;;;23.13;13.93;;;-2.20;99.90;;;;;;5130851;27;20122;-59
2021/12/22 06:50:04;;;;;;;20.27;12.32;;;-2.20;99.90;;;;;;5094925;27;20051;-58
2021/12/22 06:52:29;;;;;;;19.65;12.70;;;-2.20;99.90;;;;;;5130996;27;20161;-61
2021/12/22 06:54:55;;;;;;;22.60;12.90;;;-2.20;99.90;;;;;;5109988;27;20126;-60
2021/12/22 06:57:22;;;;;;;21.50;12.18;;;-2.10;99.90;;;;;;5109066;28;20039;-61
2021/12/22 06:59:48;;;;;;;20.80;11.98;;;-2.10;99.90;;;;;;5112211;28;20500;-60
2021/12/22 07:02:14;;;;;;;22.02;12.48;;;-2.20;99.90;;;;;;5130986;28;20112;-60
2021/12/22 07:04:40;;;;;;;21.13;12.45;;;-2.20;99.90;;;;;;5112927;28;20059;-60
2021/12/22 07:07:06;;;;;;;24.35;12.63;;;-2.20;99.90;;;;;;5095634;28;20129;-60
2021/12/22 07:09:32;;;;;;;24.02;12.70;;;-2.20;99.90;;;;;;5112715;28;20122;-60
2021/12/22 07:11:58;;;;;;;20.27;12.77;;;-2.10;99.90;;;;;;5130816;28;20445;-61
2021/12/22 07:14:24;;;;;;;18.80;12.18;;;-2.10;99.90;;;;;;5131003;28;20043;-59
2021/12/22 07:16:50;;;;;;;23.42;12.85;;;-2.10;99.90;;;;;;5099859;28;20039;-59
2021/12/22 07:19:16;;;;;;;20.63;11.45;;;-2.10;99.90;;;;;;5104765;28;20059;-60
2021/12/22 07:21:43;;;;;;;26.77;13.23;;;-2.10;99.90;;;;;;5130961;28;20047;-60
2021/12/22 07:24:09;;;;;;;21.38;12.13;;;-2.10;99.90;;;;;;5130936;28;20050;-60
2021/12/22 07:26:37;;;;;;;24.10;13.32;;;-2.10;99.90;;;;;;5127180;28;20036;-59
2021/12/22 07:29:03;;;;;;;23.27;12.88;;;-2.10;99.90;;;;;;5130017;28;20047;-58
2021/12/22 07:31:29;;;;;;;21.27;12.27;;;-2.00;99.90;;;;;;5147154;27;20052;-61
2021/12/22 07:33:55;;;;;;;23.13;13.38;;;-2.00;99.90;;;;;;5146501;27;20068;-61
2021/12/22 07:36:21;;;;;;;24.45;12.43;;;-1.90;99.90;;;;;;5130650;28;20055;-60
2021/12/22 07:38:59;;;;;;;24.60;12.38;;;-2.00;99.90;;;;;;5109542;28;20106;-60
2021/12/22 07:41:25;;;;;;;22.50;11.63;;;-1.90;99.90;;;;;;5129138;28;20151;-61
2021/12/22 07:43:51;;;;;;;24.33;12.27;;;-1.90;99.90;;;;;;5112034;28;20051;-60
2021/12/22 07:46:17;;;;;;;22.27;12.00;;;-1.90;99.90;;;;;;5096955;27;20503;-62
2021/12/22 07:48:43;;;;;;;19.58;11.70;;;-1.60;99.90;;;;;;5102916;28;20481;-60
2021/12/22 07:51:09;;;;;;;21.92;11.65;;;-1.90;99.90;;;;;;5113739;28;20067;-60
2021/12/22 07:53:36;;;;;;;19.48;11.57;;;-1.70;99.90;;;;;;5061960;28;20086;-61
2021/12/22 07:56:02;;;;;;;22.20;12.20;;;-1.80;99.90;;;;;;5113706;28;20043;-60
2021/12/22 07:58:28;;;;;;;21.90;10.98;;;-1.80;99.90;;;;;;5089340;28;20096;-61
2021/12/22 08:00:55;;;;;;;20.48;11.88;;;-1.80;99.90;;;;;;5094830;28;20046;-61
2021/12/22 08:03:22;;;;;;;20.48;11.70;;;-1.70;99.90;;;;;;5095556;28;20100;-61
2021/12/22 08:05:49;;;;;;;18.08;11.38;;;-1.70;99.90;;;;;;5113815;28;20047;-61
2021/12/22 08:08:17;;;;;;;19.95;11.70;;;-1.70;99.90;;;;;;5124657;27;20043;-61
2021/12/22 08:10:43;;;;;;;18.17;10.35;;;-1.50;99.90;;;;;;5079909;28;20139;-60
2021/12/22 08:13:09;;;;;;;17.92;9.93;;;-1.60;99.90;;;;;;5113074;28;20540;-61
2021/12/22 08:15:38;;;;;;;19.05;11.07;;;-1.50;99.90;;;;;;5095439;28;20072;-60
2021/12/22 08:18:04;;;;;;;16.42;9.40;;;-1.50;99.90;;;;;;5118142;27;20043;-60
2021/12/22 08:20:30;;;;;;;22.55;10.18;;;-1.40;99.90;;;;;;5098232;27;20454;-60
2021/12/22 08:22:56;;;;;;;18.73;10.10;;;-1.40;99.90;;;;;;5115357;27;20051;-62
2021/12/22 08:25:21;;;;;;;18.33;10.18;;;-1.40;99.90;;;;;;5098628;27;20166;-60
2021/12/22 08:27:48;;;;;;;20.85;9.95;;;-1.30;99.90;;;;;;5134028;27;20047;-61
2021/12/22 08:30:14;;;;;;;17.63;9.93;;;-1.30;99.90;;;;;;5106818;28;20048;-61
2021/12/22 08:32:41;;;;;;;19.23;10.18;;;-1.30;99.90;;;;;;5085841;27;20042;-61
2021/12/22 08:35:12;;;;;;;13.95;8.32;;;-1.20;99.90;;;;;;5097630;27;20500;-60
2021/12/22 08:40:24;;;;;;;16.95;9.85;;;-1.10;99.90;;;;;;5085872;28;20092;-63
2021/12/22 08:42:51;;;;;;;19.75;9.77;;;-1.10;99.90;;;;;;5090228;28;20047;-59
2021/12/22 08:45:17;;;;;;;18.20;10.60;;;-1.00;99.90;;;;;;5090593;28;20091;-61
2021/12/22 08:47:44;;;;;;;17.77;9.63;;;-1.00;99.90;;;;;;5091180;28;20098;-61
2021/12/22 08:50:12;;;;;;;19.63;9.40;;;-1.00;99.90;;;;;;5091186;28;20402;-61
2021/12/22 08:52:40;;;;;;;18.00;9.15;;;-1.00;99.90;;;;;;5092652;28;20048;-60
2021/12/22 08:55:07;;;;;;;15.00;8.45;;;-1.00;99.90;;;;;;5091860;28;20385;-60
2021/12/22 08:57:34;;;;;;;21.10;10.32;;;-0.90;99.90;;;;;;5088505;28;20044;-61
2021/12/22 09:00:04;;;;;;;18.77;9.63;;;-0.90;99.90;;;;;;5084847;28;20044;-63
2021/12/22 09:02:30;;;;;;;18.17;9.98;;;-0.90;99.90;;;;;;5092469;28;20048;-60
2021/12/22 09:04:56;;;;;;;16.88;9.77;;;-0.90;99.90;;;;;;5090668;28;20451;-60
2021/12/22 09:07:22;;;;;;;18.88;9.82;;;-0.80;99.90;;;;;;5091188;28;20052;-61
2021/12/22 09:09:47;;;;;;;15.77;10.10;;;-0.80;99.90;;;;;;5090727;28;20040;-61
2021/12/22 09:12:14;;;;;;;18.92;9.35;;;-0.80;99.90;;;;;;5090784;28;20067;-61
2021/12/22 09:14:40;;;;;;;19.02;8.93;;;-0.70;99.90;;;;;;5091794;28;20052;-61
2021/12/22 09:17:06;;;;;;;16.83;9.32;;;-0.40;99.90;;;;;;5091432;28;20044;-60
2021/12/22 09:19:32;;;;;;;19.95;9.50;;;-0.70;99.90;;;;;;5091202;28;20040;-61
2021/12/22 09:21:57;;;;;;;16.42;9.35;;;-0.60;99.90;;;;;;5090193;28;20067;-61
2021/12/22 09:24:23;;;;;;;17.35;9.90;;;-0.40;99.90;;;;;;5090021;28;20044;-61
2021/12/22 09:26:49;;;;;;;22.58;10.20;;;-0.60;99.90;;;;;;5090480;28;20051;-62
2021/12/22 09:29:14;;;;;;;20.30;10.00;;;-0.50;99.90;;;;;;5105728;28;20040;-61
2021/12/22 09:31:40;;;;;;;19.20;9.48;;;-0.50;99.90;;;;;;5092254;28;20164;-63
2021/12/22 09:34:08;;;;;;;20.90;9.27;;;-0.50;99.90;;;;;;5073367;28;20052;-61
2021/12/22 09:36:34;;;;;;;19.38;10.38;;;-0.50;99.90;;;;;;5090334;28;20044;-63
2021/12/22 09:39:00;;;;;;;16.65;9.45;;;-0.50;99.90;;;;;;5112640;27;20112;-61
2021/12/22 09:41:25;;;;;;;17.00;9.13;;;-0.40;99.90;;;;;;5113172;27;20633;-62
2021/12/22 09:43:53;;;;;;;17.33;9.15;;;-0.40;99.90;;;;;;5111413;27;20186;-61
2021/12/22 09:46:22;;;;;;;17.35;8.55;;;-0.40;99.90;;;;;;5132046;27;20047;-61
2021/12/22 09:53:47;;;;;;;16.77;9.20;;;-0.20;99.90;;;;;;5130801;27;20407;-61
2021/12/22 09:56:14;;;;;;;18.00;9.73;;;-0.20;99.90;;;;;;5131001;27;20553;-61
2021/12/22 09:58:43;;;;;;;18.38;9.73;;;-0.20;99.90;;;;;;5113558;27;20107;-63
2021/12/22 10:01:09;;;;;;;14.40;7.50;;;-0.20;99.90;;;;;;5112063;27;20079;-61
2021/12/22 10:03:35;;;;;;;18.90;9.63;;;-0.20;99.90;;;;;;5132364;27;20373;-61
2021/12/22 10:06:02;;;;;;;19.20;8.73;;;-0.20;99.90;;;;;;5131809;27;20123;-61
2021/12/22 10:08:29;;;;;;;15.30;9.32;;;-0.20;99.90;;;;;;5131407;27;20047;-61
2021/12/22 10:11:09;;;;;;;14.77;8.88;;;-0.20;99.90;;;;;;5113695;27;20097;-61
2021/12/22 10:13:36;;;;;;;17.80;9.00;;;-0.10;99.90;;;;;;5132174;27;20755;-60
2021/12/22 10:16:44;;;;;;;13.65;7.93;;;-0.10;99.90;;;;;;5131730;27;20039;-61
2021/12/22 10:19:10;;;;;;;16.98;9.63;;;-0.10;99.90;;;;;;5071583;27;20051;-61
2021/12/22 10:21:54;;;;;;;18.20;9.75;;;-0.10;99.90;;;;;;5110889;27;20138;-61
2021/12/22 10:24:39;;;;;;;14.70;6.95;;;-0.10;99.90;;;;;;5111211;28;20056;-61
2021/12/22 10:27:19;;;;;;;10.95;7.40;;;0.00;99.90;;;;;;5120893;27;20043;-60
2021/12/22 10:29:45;;;;;;;15.40;8.80;;;0.00;99.90;;;;;;5130475;27;20097;-61
2021/12/22 10:32:16;;;;;;;16.05;9.48;;;0.00;99.90;;;;;;5129901;27;20089;-63
2021/12/22 10:34:56;;;;;;;13.40;7.88;;;0.00;99.90;;;;;;5096229;27;20156;-61
2021/12/22 10:37:39;;;;;;;19.27;9.05;;;-0.10;99.90;;;;;;5130165;27;20059;-60
2021/12/22 10:40:26;;;;;;;12.07;7.18;;;0.00;99.90;;;;;;5131558;27;20076;-61
2021/12/22 10:42:52;;;;;;;15.70;8.20;;;0.00;99.90;;;;;;5128621;27;20043;-60
2021/12/22 10:45:19;;;;;;;15.60;8.77;;;0.00;99.90;;;;;;5112851;27;20046;-61
2021/12/22 10:50:42;;;;;;;13.85;8.07;;;0.00;99.90;;;;;;5112485;28;20063;-61
2021/12/22 10:53:09;;;;;;;17.58;7.82;;;0.10;99.90;;;;;;5131116;27;20054;-60
2021/12/22 10:55:47;;;;;;;12.85;7.38;;;0.10;99.90;;;;;;5120140;27;20055;-60
2021/12/22 10:58:29;;;;;;;11.55;7.07;;;0.10;99.90;;;;;;5110979;28;20053;-60
2021/12/22 11:01:08;;;;;;;15.32;9.02;;;0.10;99.90;;;;;;5098045;28;20125;-61
2021/12/22 11:03:40;;;;;;;13.90;8.98;;;0.10;99.90;;;;;;5112929;28;20865;-60
2021/12/22 11:06:28;;;;;;;20.13;9.38;;;0.10;99.90;;;;;;5113081;28;20530;-60
2021/12/22 11:09:15;;;;;;;15.55;8.48;;;0.10;99.90;;;;;;5128923;28;20066;-60
2021/12/22 11:11:42;;;;;;;12.60;7.80;;;0.10;99.90;;;;;;5129813;28;20039;-60
2021/12/22 11:14:17;;;;;;;14.48;7.75;;;0.20;99.90;;;;;;5117523;28;20048;-61
2021/12/22 11:17:05;;;;;;;15.35;8.88;;;0.10;99.90;;;;;;5105922;28;20112;-60
2021/12/22 11:19:35;;;;;;;12.65;7.68;;;0.20;99.90;;;;;;5129892;27;20049;-59
2021/12/22 11:24:36;;;;;;;15.63;7.95;;;0.20;99.90;;;;;;5138266;27;20067;-60
2021/12/22 11:27:03;;;;;;;16.27;8.43;;;0.20;99.90;;;;;;5133551;27;20099;-60
2021/12/22 11:29:30;;;;;;;13.70;7.13;;;0.20;99.90;;;;;;5116027;27;20046;-60
2021/12/22 11:31:57;;;;;;;15.52;8.05;;;0.20;99.90;;;;;;5132688;27;20122;-60
2021/12/22 11:34:24;;;;;;;15.57;8.57;;;0.20;99.90;;;;;;5104712;27;20058;-60
2021/12/22 11:36:50;;;;;;;15.30;8.35;;;0.30;99.90;;;;;;5097054;27;20044;-59
2021/12/22 11:39:17;;;;;;;15.82;9.65;;;0.30;99.90;;;;;;5126052;27;20055;-59
2021/12/22 11:41:54;;;;;;;14.70;6.82;;;0.40;99.90;;;;;;5133627;27;20058;-60
2021/12/22 11:44:20;;;;;;;15.23;8.90;;;0.40;99.90;;;;;;5135971;27;20457;-59
2021/12/22 11:46:46;;;;;;;13.93;8.45;;;0.40;99.90;;;;;;5134575;27;20046;-59
2021/12/22 11:49:12;;;;;;;12.88;7.53;;;0.40;99.90;;;;;;5134281;27;20053;-59
2021/12/22 11:51:38;;;;;;;17.45;9.23;;;0.50;99.90;;;;;;5135801;27;20051;-59
2021/12/22 11:54:09;;;;;;;15.20;8.13;;;0.50;99.90;;;;;;5141965;27;20388;-59
2021/12/22 11:56:36;;;;;;;13.43;7.63;;;0.50;99.90;;;;;;5113967;27;20573;-60
2021/12/22 11:59:03;;;;;;;14.20;8.38;;;0.50;99.90;;;;;;5115100;27;20074;-59
2021/12/22 12:01:28;;;;;;;13.23;8.77;;;0.40;99.90;;;;;;5134669;27;20043;-61
2021/12/22 12:04:14;;;;;;;18.67;7.85;;;0.40;99.90;;;;;;5133982;27;20043;-60
2021/12/22 12:06:50;;;;;;;10.90;7.47;;;0.30;99.90;;;;;;5115371;27;20179;-61
2021/12/22 12:09:21;;;;;;;17.23;8.30;;;0.30;99.90;;;;;;5129527;27;20043;-61
2021/12/22 12:14:55;;;;;;;13.25;8.10;;;0.40;99.90;;;;;;5133865;27;20062;-59
2021/12/22 12:23:27;;;;;;;14.60;8.00;;;0.40;99.90;;;;;;5131197;27;20051;-61
2021/12/22 12:25:55;;;;;;;13.35;7.18;;;0.40;99.90;;;;;;5136564;27;20043;-61
2021/12/22 12:28:23;;;;;;;15.90;8.55;;;0.40;99.90;;;;;;5133478;27;20082;-61
2021/12/22 12:30:54;;;;;;;13.77;7.25;;;0.40;99.90;;;;;;5132895;27;20046;-58
2021/12/22 12:33:28;;;;;;;16.90;8.48;;;0.50;99.90;;;;;;5132072;27;20103;-60
2021/12/22 12:35:54;;;;;;;17.00;8.80;;;0.30;99.90;;;;;;5132454;27;20846;-60
2021/12/22 12:38:22;;;;;;;16.58;8.77;;;0.40;99.90;;;;;;5133349;27;20062;-61
2021/12/22 12:43:56;;;;;;;12.07;7.45;;;0.40;99.90;;;;;;5132781;27;20043;-60
2021/12/22 12:46:24;;;;;;;12.82;7.30;;;0.40;99.90;;;;;;5098275;27;20512;-60
2021/12/22 12:49:02;;;;;;;11.73;7.13;;;0.40;99.90;;;;;;5125356;27;20055;-61
2021/12/22 12:51:35;;;;;;;14.60;9.40;;;0.40;99.90;;;;;;5131623;27;20071;-60
2021/12/22 12:54:04;;;;;;;10.93;6.50;;;0.30;99.90;;;;;;5132970;27;20047;-60
2021/12/22 12:56:42;;;;;;;14.18;8.85;;;0.50;99.90;;;;;;5114995;27;20043;-60
2021/12/22 12:59:08;;;;;;;12.45;8.43;;;0.30;99.90;;;;;;5133042;27;20047;-60
2021/12/22 13:01:51;;;;;;;14.68;9.23;;;0.30;99.90;;;;;;5113440;27;20042;-59
2021/12/22 13:04:24;;;;;;;19.30;7.95;;;0.30;99.90;;;;;;5131948;27;20047;-60
2021/12/22 13:06:51;;;;;;;15.48;7.88;;;0.40;99.90;;;;;;5132774;27;20047;-60
2021/12/22 13:09:25;;;;;;;15.90;8.77;;;0.50;99.90;;;;;;5113091;27;20130;-60
2021/12/22 13:11:55;;;;;;;17.40;8.47;;;0.40;99.90;;;;;;5112152;27;20794;-59
2021/12/22 13:17:19;;;;;;;14.90;8.55;;;0.40;99.90;;;;;;5146893;27;20050;-59